Archival Weather

Chicago O'Hare International

Chicago, Illinois (KORD)

Report from: Tuesday, June 21, 2022 3:51 PM CDT
Current time: Sunday, November 27, 2022 3:57 AM CST

Current weather
Weather history
Weather forecast

Temperature36.7°C (98.1°F)
Heat index39.3°C (102.8°F)
Dew point19.4°C (66.9°F)
Winds 13 kts (6.7 m/s, 15 mph) Southwest (230°)
Wind gusts 22 kts (11.3 m/s, 25.3 mph)
Peak wind 27 kts (13.9 m/s, 31.1 mph) South-Southwest (210°) at 15:19
Visibility10 mi. (16.1 km)
Clouds Sky clear
Altimeter29.97 in.Hg (1015 mB)
Relative humidity37 %
Density altitude2,705 ft. (824 m)
Sea-level pressure101.4 kPa (1014 mB, 29.95 in.Hg)
Remarks Automated weather observing station with precipitation discriminator
Pressure falling more slowly
Flight conditions Visual Meteorological Conditions
Raw dataKORD 212051Z 23013G22KT 10SM CLR 37/19 A2997 RMK AO2 PK WND 21027/2019 SLP143 T03670194 56018
An error has occurred. This application may no longer respond until reloaded. Reload 🗙